sensor_id;sensor_type;location;lat;lon;timestamp;P1;durP1;ratioP1;P2;durP2;ratioP2
31347;SDS011;21711;49.708;18.568;2023-02-18T00:01:41;2.60;;;2.00;;
31347;SDS011;21711;49.708;18.568;2023-02-18T00:04:08;3.15;;;1.23;;
31347;SDS011;21711;49.708;18.568;2023-02-18T00:06:36;5.85;;;2.05;;
31347;SDS011;21711;49.708;18.568;2023-02-18T00:09:04;3.70;;;1.92;;
31347;SDS011;21711;49.708;18.568;2023-02-18T00:11:33;4.82;;;2.17;;
31347;SDS011;21711;49.708;18.568;2023-02-18T00:16:32;3.70;;;1.70;;
31347;SDS011;21711;49.708;18.568;2023-02-18T00:19:01;2.97;;;1.80;;
31347;SDS011;21711;49.708;18.568;2023-02-18T00:21:31;5.20;;;2.15;;
31347;SDS011;21711;49.708;18.568;2023-02-18T00:24:01;3.75;;;1.98;;
31347;SDS011;21711;49.708;18.568;2023-02-18T00:26:30;2.92;;;2.15;;
31347;SDS011;21711;49.708;18.568;2023-02-18T00:28:57;4.32;;;2.17;;
31347;SDS011;21711;49.708;18.568;2023-02-18T00:31:26;4.35;;;2.17;;
31347;SDS011;21711;49.708;18.568;2023-02-18T00:33:59;8.15;;;2.22;;
31347;SDS011;21711;49.708;18.568;2023-02-18T00:36:28;3.65;;;2.10;;
31347;SDS011;21711;49.708;18.568;2023-02-18T00:38:58;5.90;;;1.83;;
31347;SDS011;21711;49.708;18.568;2023-02-18T00:41:29;2.60;;;1.50;;
31347;SDS011;21711;49.708;18.568;2023-02-18T00:43:57;6.20;;;2.28;;
31347;SDS011;21711;49.708;18.568;2023-02-18T00:46:25;1.98;;;1.40;;
31347;SDS011;21711;49.708;18.568;2023-02-18T00:48:53;3.80;;;1.50;;
31347;SDS011;21711;49.708;18.568;2023-02-18T00:51:21;2.85;;;1.90;;
31347;SDS011;21711;49.708;18.568;2023-02-18T00:53:50;4.32;;;1.60;;
31347;SDS011;21711;49.708;18.568;2023-02-18T00:56:18;3.42;;;1.60;;
31347;SDS011;21711;49.708;18.568;2023-02-18T00:58:46;3.30;;;1.50;;
31347;SDS011;21711;49.708;18.568;2023-02-18T01:01:15;2.72;;;1.58;;
31347;SDS011;21711;49.708;18.568;2023-02-18T01:03:42;4.13;;;1.60;;
31347;SDS011;21711;49.708;18.568;2023-02-18T01:06:10;3.05;;;1.77;;
31347;SDS011;21711;49.708;18.568;2023-02-18T01:08:39;2.70;;;1.33;;
31347;SDS011;21711;49.708;18.568;2023-02-18T01:11:08;2.30;;;1.30;;
31347;SDS011;21711;49.708;18.568;2023-02-18T01:13:38;2.35;;;1.42;;
31347;SDS011;21711;49.708;18.568;2023-02-18T01:16:06;2.45;;;1.33;;
31347;SDS011;21711;49.708;18.568;2023-02-18T01:18:35;3.45;;;2.03;;
31347;SDS011;21711;49.708;18.568;2023-02-18T01:21:04;2.30;;;1.15;;
31347;SDS011;21711;49.708;18.568;2023-02-18T01:23:38;2.42;;;1.25;;
31347;SDS011;21711;49.708;18.568;2023-02-18T01:26:08;3.20;;;1.00;;
31347;SDS011;21711;49.708;18.568;2023-02-18T01:28:37;1.95;;;1.10;;
31347;SDS011;21711;49.708;18.568;2023-02-18T01:31:07;4.72;;;1.60;;
31347;SDS011;21711;49.708;18.568;2023-02-18T01:33:39;2.17;;;1.25;;
31347;SDS011;21711;49.708;18.568;2023-02-18T01:36:07;3.58;;;1.30;;
31347;SDS011;21711;49.708;18.568;2023-02-18T01:38:36;3.85;;;1.25;;
31347;SDS011;21711;49.708;18.568;2023-02-18T01:41:04;2.38;;;1.38;;
31347;SDS011;21711;49.708;18.568;2023-02-18T01:43:32;2.92;;;1.30;;
31347;SDS011;21711;49.708;18.568;2023-02-18T01:48:33;2.17;;;1.10;;
31347;SDS011;21711;49.708;18.568;2023-02-18T01:51:27;2.30;;;1.48;;
31347;SDS011;21711;49.708;18.568;2023-02-18T01:54:09;1.90;;;1.20;;
31347;SDS011;21711;49.708;18.568;2023-02-18T01:56:54;2.10;;;1.10;;
31347;SDS011;21711;49.708;18.568;2023-02-18T01:59:28;2.60;;;1.35;;
31347;SDS011;21711;49.708;18.568;2023-02-18T02:02:12;2.17;;;1.27;;
31347;SDS011;21711;49.708;18.568;2023-02-18T02:04:44;2.08;;;1.45;;
31347;SDS011;21711;49.708;18.568;2023-02-18T02:07:12;2.25;;;1.40;;
31347;SDS011;21711;49.708;18.568;2023-02-18T02:36:35;4.30;;;1.88;;
31347;SDS011;21711;49.708;18.568;2023-02-18T02:42:36;4.10;;;1.83;;
31347;SDS011;21711;49.708;18.568;2023-02-18T02:51:17;10.65;;;6.07;;
31347;SDS011;21711;49.708;18.568;2023-02-18T02:53:55;46.38;;;21.90;;
31347;SDS011;21711;49.708;18.568;2023-02-18T02:56:44;85.05;;;38.33;;
31347;SDS011;21711;49.708;18.568;2023-02-18T02:59:17;21.85;;;8.38;;
31347;SDS011;21711;49.708;18.568;2023-02-18T03:04:53;115.97;;;33.88;;
31347;SDS011;21711;49.708;18.568;2023-02-18T03:08:04;205.00;;;56.97;;
31347;SDS011;21711;49.708;18.568;2023-02-18T03:13:48;49.47;;;14.40;;
31347;SDS011;21711;49.708;18.568;2023-02-18T03:22:22;47.45;;;16.90;;
31347;SDS011;21711;49.708;18.568;2023-02-18T03:24:57;25.38;;;10.55;;
31347;SDS011;21711;49.708;18.568;2023-02-18T03:27:43;31.45;;;10.25;;
31347;SDS011;21711;49.708;18.568;2023-02-18T03:30:20;14.88;;;4.72;;
31347;SDS011;21711;49.708;18.568;2023-02-18T03:33:08;6.45;;;3.03;;
31347;SDS011;21711;49.708;18.568;2023-02-18T03:35:42;17.90;;;8.15;;
31347;SDS011;21711;49.708;18.568;2023-02-18T03:41:11;10.20;;;4.15;;
31347;SDS011;21711;49.708;18.568;2023-02-18T03:43:39;4.13;;;2.22;;
31347;SDS011;21711;49.708;18.568;2023-02-18T03:46:14;5.30;;;2.95;;
31347;SDS011;21711;49.708;18.568;2023-02-18T03:48:42;5.25;;;3.33;;
31347;SDS011;21711;49.708;18.568;2023-02-18T03:51:10;6.35;;;3.03;;
31347;SDS011;21711;49.708;18.568;2023-02-18T03:53:37;4.05;;;2.30;;
31347;SDS011;21711;49.708;18.568;2023-02-18T03:56:05;5.13;;;3.17;;
31347;SDS011;21711;49.708;18.568;2023-02-18T03:58:33;5.35;;;2.83;;
31347;SDS011;21711;49.708;18.568;2023-02-18T04:01:00;5.13;;;2.95;;
31347;SDS011;21711;49.708;18.568;2023-02-18T04:03:27;7.78;;;4.00;;
31347;SDS011;21711;49.708;18.568;2023-02-18T04:05:55;5.68;;;3.17;;
31347;SDS011;21711;49.708;18.568;2023-02-18T04:08:22;8.40;;;2.55;;
31347;SDS011;21711;49.708;18.568;2023-02-18T04:10:50;3.88;;;1.95;;
31347;SDS011;21711;49.708;18.568;2023-02-18T04:13:17;3.15;;;1.90;;
31347;SDS011;21711;49.708;18.568;2023-02-18T04:15:45;3.08;;;1.45;;
31347;SDS011;21711;49.708;18.568;2023-02-18T04:18:16;3.72;;;2.00;;
31347;SDS011;21711;49.708;18.568;2023-02-18T04:20:44;2.38;;;1.20;;
31347;SDS011;21711;49.708;18.568;2023-02-18T04:23:15;3.17;;;1.42;;
31347;SDS011;21711;49.708;18.568;2023-02-18T04:25:43;2.72;;;1.33;;
31347;SDS011;21711;49.708;18.568;2023-02-18T04:28:10;3.33;;;2.08;;
31347;SDS011;21711;49.708;18.568;2023-02-18T04:30:41;3.28;;;1.70;;
31347;SDS011;21711;49.708;18.568;2023-02-18T04:33:10;2.92;;;1.60;;
31347;SDS011;21711;49.708;18.568;2023-02-18T04:35:38;4.72;;;2.30;;
31347;SDS011;21711;49.708;18.568;2023-02-18T04:38:09;3.38;;;1.98;;
31347;SDS011;21711;49.708;18.568;2023-02-18T04:40:36;3.80;;;2.20;;
31347;SDS011;21711;49.708;18.568;2023-02-18T04:43:04;3.92;;;1.65;;
31347;SDS011;21711;49.708;18.568;2023-02-18T04:45:31;2.33;;;1.40;;
31347;SDS011;21711;49.708;18.568;2023-02-18T04:47:58;8.63;;;2.03;;
31347;SDS011;21711;49.708;18.568;2023-02-18T04:50:25;5.22;;;1.63;;
31347;SDS011;21711;49.708;18.568;2023-02-18T04:52:53;3.10;;;1.45;;
31347;SDS011;21711;49.708;18.568;2023-02-18T04:55:20;3.67;;;1.73;;
31347;SDS011;21711;49.708;18.568;2023-02-18T04:57:47;4.50;;;2.13;;
31347;SDS011;21711;49.708;18.568;2023-02-18T05:00:16;3.58;;;1.80;;
31347;SDS011;21711;49.708;18.568;2023-02-18T05:02:45;3.63;;;1.80;;
31347;SDS011;21711;49.708;18.568;2023-02-18T05:05:13;4.53;;;1.58;;
31347;SDS011;21711;49.708;18.568;2023-02-18T05:07:41;3.10;;;1.65;;
31347;SDS011;21711;49.708;18.568;2023-02-18T05:10:09;5.15;;;2.05;;
31347;SDS011;21711;49.708;18.568;2023-02-18T05:12:41;4.53;;;2.03;;
31347;SDS011;21711;49.708;18.568;2023-02-18T05:15:08;4.00;;;1.83;;
31347;SDS011;21711;49.708;18.568;2023-02-18T05:17:36;5.05;;;2.10;;
31347;SDS011;21711;49.708;18.568;2023-02-18T05:20:03;3.92;;;1.98;;
31347;SDS011;21711;49.708;18.568;2023-02-18T05:22:35;3.58;;;2.15;;
31347;SDS011;21711;49.708;18.568;2023-02-18T05:25:03;2.90;;;1.98;;
31347;SDS011;21711;49.708;18.568;2023-02-18T05:27:31;3.28;;;2.00;;
31347;SDS011;21711;49.708;18.568;2023-02-18T05:29:59;3.05;;;1.88;;
31347;SDS011;21711;49.708;18.568;2023-02-18T05:32:26;3.75;;;1.80;;
31347;SDS011;21711;49.708;18.568;2023-02-18T05:34:53;7.43;;;2.25;;
31347;SDS011;21711;49.708;18.568;2023-02-18T05:37:21;4.00;;;2.00;;
31347;SDS011;21711;49.708;18.568;2023-02-18T05:39:48;4.22;;;1.80;;
31347;SDS011;21711;49.708;18.568;2023-02-18T05:42:15;4.68;;;2.05;;
31347;SDS011;21711;49.708;18.568;2023-02-18T05:44:43;3.50;;;2.10;;
31347;SDS011;21711;49.708;18.568;2023-02-18T05:47:10;5.43;;;2.35;;
31347;SDS011;21711;49.708;18.568;2023-02-18T05:49:39;3.47;;;2.05;;
31347;SDS011;21711;49.708;18.568;2023-02-18T05:52:08;4.38;;;2.38;;
31347;SDS011;21711;49.708;18.568;2023-02-18T05:54:36;5.20;;;2.70;;
31347;SDS011;21711;49.708;18.568;2023-02-18T05:57:04;17.80;;;6.35;;
31347;SDS011;21711;49.708;18.568;2023-02-18T05:59:32;56.95;;;17.00;;
31347;SDS011;21711;49.708;18.568;2023-02-18T06:02:00;57.63;;;16.67;;
31347;SDS011;21711;49.708;18.568;2023-02-18T06:04:27;57.25;;;16.48;;
31347;SDS011;21711;49.708;18.568;2023-02-18T06:06:54;37.03;;;11.90;;
31347;SDS011;21711;49.708;18.568;2023-02-18T06:09:22;39.58;;;13.82;;
31347;SDS011;21711;49.708;18.568;2023-02-18T06:11:50;38.08;;;11.40;;
31347;SDS011;21711;49.708;18.568;2023-02-18T06:14:18;48.67;;;15.13;;
31347;SDS011;21711;49.708;18.568;2023-02-18T06:16:46;49.65;;;17.77;;
31347;SDS011;21711;49.708;18.568;2023-02-18T06:19:13;28.40;;;10.18;;
31347;SDS011;21711;49.708;18.568;2023-02-18T06:21:40;46.80;;;17.85;;
31347;SDS011;21711;49.708;18.568;2023-02-18T06:24:08;23.15;;;9.93;;
31347;SDS011;21711;49.708;18.568;2023-02-18T06:26:35;15.57;;;6.82;;
31347;SDS011;21711;49.708;18.568;2023-02-18T06:29:03;7.45;;;3.38;;
31347;SDS011;21711;49.708;18.568;2023-02-18T06:31:30;56.55;;;16.02;;
31347;SDS011;21711;49.708;18.568;2023-02-18T06:33:57;49.45;;;15.82;;
31347;SDS011;21711;49.708;18.568;2023-02-18T06:36:25;18.90;;;5.85;;
31347;SDS011;21711;49.708;18.568;2023-02-18T06:38:52;17.00;;;5.72;;
31347;SDS011;21711;49.708;18.568;2023-02-18T06:41:22;91.75;;;27.50;;
31347;SDS011;21711;49.708;18.568;2023-02-18T06:43:50;41.90;;;12.82;;
31347;SDS011;21711;49.708;18.568;2023-02-18T06:46:18;29.98;;;10.73;;
31347;SDS011;21711;49.708;18.568;2023-02-18T06:48:45;55.15;;;18.98;;
31347;SDS011;21711;49.708;18.568;2023-02-18T06:51:13;54.22;;;15.80;;
31347;SDS011;21711;49.708;18.568;2023-02-18T06:53:41;75.03;;;22.33;;
31347;SDS011;21711;49.708;18.568;2023-02-18T06:56:09;44.85;;;15.35;;
31347;SDS011;21711;49.708;18.568;2023-02-18T06:58:37;64.68;;;22.20;;
31347;SDS011;21711;49.708;18.568;2023-02-18T07:01:05;29.35;;;10.60;;
31347;SDS011;21711;49.708;18.568;2023-02-18T07:03:32;25.73;;;9.93;;
31347;SDS011;21711;49.708;18.568;2023-02-18T07:06:00;18.30;;;6.97;;
31347;SDS011;21711;49.708;18.568;2023-02-18T07:08:27;26.88;;;9.57;;
31347;SDS011;21711;49.708;18.568;2023-02-18T07:10:56;31.40;;;11.30;;
31347;SDS011;21711;49.708;18.568;2023-02-18T07:13:23;11.95;;;5.05;;
31347;SDS011;21711;49.708;18.568;2023-02-18T07:15:51;13.85;;;6.60;;
31347;SDS011;21711;49.708;18.568;2023-02-18T07:18:19;13.05;;;6.05;;
31347;SDS011;21711;49.708;18.568;2023-02-18T07:20:46;17.38;;;6.10;;
31347;SDS011;21711;49.708;18.568;2023-02-18T07:23:13;12.48;;;5.70;;
31347;SDS011;21711;49.708;18.568;2023-02-18T07:25:41;14.15;;;6.47;;
31347;SDS011;21711;49.708;18.568;2023-02-18T07:28:08;15.35;;;5.80;;
31347;SDS011;21711;49.708;18.568;2023-02-18T07:30:35;24.73;;;10.82;;
31347;SDS011;21711;49.708;18.568;2023-02-18T07:33:03;15.48;;;6.95;;
31347;SDS011;21711;49.708;18.568;2023-02-18T07:35:30;15.93;;;5.63;;
31347;SDS011;21711;49.708;18.568;2023-02-18T07:37:57;8.95;;;4.30;;
31347;SDS011;21711;49.708;18.568;2023-02-18T07:40:25;8.48;;;4.22;;
31347;SDS011;21711;49.708;18.568;2023-02-18T07:42:52;12.05;;;5.68;;
31347;SDS011;21711;49.708;18.568;2023-02-18T07:45:20;13.50;;;5.53;;
31347;SDS011;21711;49.708;18.568;2023-02-18T07:47:47;10.48;;;4.38;;
31347;SDS011;21711;49.708;18.568;2023-02-18T07:50:14;8.73;;;4.32;;
31347;SDS011;21711;49.708;18.568;2023-02-18T07:52:42;6.93;;;3.05;;
31347;SDS011;21711;49.708;18.568;2023-02-18T07:55:09;12.50;;;5.40;;
31347;SDS011;21711;49.708;18.568;2023-02-18T07:57:36;5.70;;;3.00;;
31347;SDS011;21711;49.708;18.568;2023-02-18T08:00:22;6.63;;;3.42;;
31347;SDS011;21711;49.708;18.568;2023-02-18T08:02:50;7.78;;;3.55;;
31347;SDS011;21711;49.708;18.568;2023-02-18T08:05:18;6.43;;;2.25;;
31347;SDS011;21711;49.708;18.568;2023-02-18T08:07:45;5.72;;;2.20;;
31347;SDS011;21711;49.708;18.568;2023-02-18T08:10:12;6.30;;;1.80;;
31347;SDS011;21711;49.708;18.568;2023-02-18T08:12:40;4.60;;;1.40;;
31347;SDS011;21711;49.708;18.568;2023-02-18T08:15:07;3.00;;;1.77;;
31347;SDS011;21711;49.708;18.568;2023-02-18T08:17:35;2.50;;;1.50;;
31347;SDS011;21711;49.708;18.568;2023-02-18T08:20:02;3.78;;;1.80;;
31347;SDS011;21711;49.708;18.568;2023-02-18T08:22:31;5.90;;;1.35;;
31347;SDS011;21711;49.708;18.568;2023-02-18T08:24:58;4.65;;;1.77;;
31347;SDS011;21711;49.708;18.568;2023-02-18T08:27:25;6.43;;;2.05;;
31347;SDS011;21711;49.708;18.568;2023-02-18T08:29:53;5.47;;;1.10;;
31347;SDS011;21711;49.708;18.568;2023-02-18T08:32:21;4.05;;;1.60;;
31347;SDS011;21711;49.708;18.568;2023-02-18T08:34:51;3.80;;;1.48;;
31347;SDS011;21711;49.708;18.568;2023-02-18T08:37:19;3.45;;;1.05;;
31347;SDS011;21711;49.708;18.568;2023-02-18T08:39:46;5.68;;;1.35;;
31347;SDS011;21711;49.708;18.568;2023-02-18T08:42:13;6.78;;;1.63;;
31347;SDS011;21711;49.708;18.568;2023-02-18T08:44:41;3.47;;;1.45;;
31347;SDS011;21711;49.708;18.568;2023-02-18T08:47:08;4.93;;;1.35;;
31347;SDS011;21711;49.708;18.568;2023-02-18T08:49:55;2.35;;;1.08;;
31347;SDS011;21711;49.708;18.568;2023-02-18T08:52:23;2.70;;;1.17;;
31347;SDS011;21711;49.708;18.568;2023-02-18T08:54:51;4.03;;;1.30;;
31347;SDS011;21711;49.708;18.568;2023-02-18T08:57:18;3.13;;;0.98;;
31347;SDS011;21711;49.708;18.568;2023-02-18T08:59:45;6.78;;;1.00;;
31347;SDS011;21711;49.708;18.568;2023-02-18T09:02:13;6.07;;;1.10;;
31347;SDS011;21711;49.708;18.568;2023-02-18T09:04:40;4.75;;;1.50;;
31347;SDS011;21711;49.708;18.568;2023-02-18T09:07:08;5.47;;;1.92;;
31347;SDS011;21711;49.708;18.568;2023-02-18T09:09:35;3.25;;;1.25;;
31347;SDS011;21711;49.708;18.568;2023-02-18T09:12:02;5.70;;;1.60;;
31347;SDS011;21711;49.708;18.568;2023-02-18T09:14:30;6.20;;;1.00;;
31347;SDS011;21711;49.708;18.568;2023-02-18T09:16:57;2.72;;;1.30;;
31347;SDS011;21711;49.708;18.568;2023-02-18T09:19:25;8.98;;;1.25;;
31347;SDS011;21711;49.708;18.568;2023-02-18T09:21:52;7.60;;;1.90;;
31347;SDS011;21711;49.708;18.568;2023-02-18T09:24:20;3.28;;;1.45;;
31347;SDS011;21711;49.708;18.568;2023-02-18T09:26:47;4.18;;;1.20;;
31347;SDS011;21711;49.708;18.568;2023-02-18T09:29:14;5.25;;;1.38;;
31347;SDS011;21711;49.708;18.568;2023-02-18T09:31:43;5.88;;;1.15;;
31347;SDS011;21711;49.708;18.568;2023-02-18T09:34:11;6.45;;;2.10;;
31347;SDS011;21711;49.708;18.568;2023-02-18T09:36:38;5.13;;;1.67;;
31347;SDS011;21711;49.708;18.568;2023-02-18T09:39:05;3.70;;;1.33;;
31347;SDS011;21711;49.708;18.568;2023-02-18T09:44:15;3.10;;;1.37;;
31347;SDS011;21711;49.708;18.568;2023-02-18T09:46:51;8.25;;;1.42;;
31347;SDS011;21711;49.708;18.568;2023-02-18T09:49:26;6.88;;;1.60;;
31347;SDS011;21711;49.708;18.568;2023-02-18T09:52:03;5.50;;;1.42;;
31347;SDS011;21711;49.708;18.568;2023-02-18T09:54:44;7.05;;;1.90;;
31347;SDS011;21711;49.708;18.568;2023-02-18T10:02:56;6.18;;;2.03;;
31347;SDS011;21711;49.708;18.568;2023-02-18T10:05:41;5.53;;;2.10;;
31347;SDS011;21711;49.708;18.568;2023-02-18T10:08:38;6.35;;;2.05;;
31347;SDS011;21711;49.708;18.568;2023-02-18T10:11:15;7.18;;;2.00;;
31347;SDS011;21711;49.708;18.568;2023-02-18T10:14:13;4.13;;;1.45;;
31347;SDS011;21711;49.708;18.568;2023-02-18T10:16:42;5.35;;;1.60;;
31347;SDS011;21711;49.708;18.568;2023-02-18T10:21:48;4.68;;;1.70;;
31347;SDS011;21711;49.708;18.568;2023-02-18T10:27:01;13.27;;;2.63;;
31347;SDS011;21711;49.708;18.568;2023-02-18T10:29:31;6.70;;;2.58;;
31347;SDS011;21711;49.708;18.568;2023-02-18T10:34:51;5.63;;;2.20;;
31347;SDS011;21711;49.708;18.568;2023-02-18T10:43:41;10.48;;;2.90;;
31347;SDS011;21711;49.708;18.568;2023-02-18T10:52:19;9.15;;;2.33;;
31347;SDS011;21711;49.708;18.568;2023-02-18T10:57:26;4.60;;;2.10;;
31347;SDS011;21711;49.708;18.568;2023-02-18T11:05:43;11.82;;;2.58;;
31347;SDS011;21711;49.708;18.568;2023-02-18T11:10:48;7.30;;;2.92;;
31347;SDS011;21711;49.708;18.568;2023-02-18T11:13:22;9.60;;;3.08;;
31347;SDS011;21711;49.708;18.568;2023-02-18T11:15:55;5.40;;;2.70;;
31347;SDS011;21711;49.708;18.568;2023-02-18T11:18:29;7.10;;;3.10;;
31347;SDS011;21711;49.708;18.568;2023-02-18T11:21:03;5.75;;;2.45;;
31347;SDS011;21711;49.708;18.568;2023-02-18T11:23:50;6.22;;;3.08;;
31347;SDS011;21711;49.708;18.568;2023-02-18T11:26:29;6.75;;;2.67;;
31347;SDS011;21711;49.708;18.568;2023-02-18T11:29:35;5.32;;;3.08;;
31347;SDS011;21711;49.708;18.568;2023-02-18T11:31:56;6.85;;;2.75;;
31347;SDS011;21711;49.708;18.568;2023-02-18T11:34:26;7.13;;;3.17;;
31347;SDS011;21711;49.708;18.568;2023-02-18T11:37:07;6.10;;;2.90;;
31347;SDS011;21711;49.708;18.568;2023-02-18T11:39:45;10.57;;;4.78;;
31347;SDS011;21711;49.708;18.568;2023-02-18T11:42:17;13.63;;;4.43;;
31347;SDS011;21711;49.708;18.568;2023-02-18T11:44:58;9.73;;;4.53;;
31347;SDS011;21711;49.708;18.568;2023-02-18T11:47:35;10.20;;;4.88;;
31347;SDS011;21711;49.708;18.568;2023-02-18T11:50:13;9.65;;;4.68;;
31347;SDS011;21711;49.708;18.568;2023-02-18T11:52:47;10.13;;;4.97;;
31347;SDS011;21711;49.708;18.568;2023-02-18T11:55:18;14.20;;;5.85;;
31347;SDS011;21711;49.708;18.568;2023-02-18T11:58:00;9.93;;;5.15;;
31347;SDS011;21711;49.708;18.568;2023-02-18T12:00:38;10.88;;;5.95;;
31347;SDS011;21711;49.708;18.568;2023-02-18T12:06:14;14.38;;;5.50;;
31347;SDS011;21711;49.708;18.568;2023-02-18T12:09:05;13.18;;;5.60;;
31347;SDS011;21711;49.708;18.568;2023-02-18T12:12:01;11.82;;;6.25;;
31347;SDS011;21711;49.708;18.568;2023-02-18T12:14:37;18.10;;;7.03;;
31347;SDS011;21711;49.708;18.568;2023-02-18T12:22:42;10.98;;;7.40;;
31347;SDS011;21711;49.708;18.568;2023-02-18T12:28:10;16.25;;;7.72;;
31347;SDS011;21711;49.708;18.568;2023-02-18T12:31:17;12.20;;;7.05;;
31347;SDS011;21711;49.708;18.568;2023-02-18T12:34:46;11.95;;;6.82;;
31347;SDS011;21711;49.708;18.568;2023-02-18T12:37:29;13.48;;;7.10;;
31347;SDS011;21711;49.708;18.568;2023-02-18T12:40:20;11.40;;;5.80;;
31347;SDS011;21711;49.708;18.568;2023-02-18T12:43:12;9.50;;;5.78;;
31347;SDS011;21711;49.708;18.568;2023-02-18T13:07:46;38.92;;;12.43;;
31347;SDS011;21711;49.708;18.568;2023-02-18T13:13:15;15.05;;;6.55;;
31347;SDS011;21711;49.708;18.568;2023-02-18T13:15:51;15.52;;;6.85;;
31347;SDS011;21711;49.708;18.568;2023-02-18T13:18:55;16.90;;;6.45;;
31347;SDS011;21711;49.708;18.568;2023-02-18T13:22:01;16.33;;;5.90;;
31347;SDS011;21711;49.708;18.568;2023-02-18T13:27:52;9.55;;;5.43;;
31347;SDS011;21711;49.708;18.568;2023-02-18T13:30:35;8.93;;;3.95;;
31347;SDS011;21711;49.708;18.568;2023-02-18T13:36:27;6.50;;;3.35;;
31347;SDS011;21711;49.708;18.568;2023-02-18T13:39:33;6.10;;;3.17;;
31347;SDS011;21711;49.708;18.568;2023-02-18T13:42:36;6.30;;;2.45;;
31347;SDS011;21711;49.708;18.568;2023-02-18T14:01:02;8.23;;;2.83;;
31347;SDS011;21711;49.708;18.568;2023-02-18T14:06:13;2.75;;;1.70;;
31347;SDS011;21711;49.708;18.568;2023-02-18T14:08:42;3.88;;;2.10;;
31347;SDS011;21711;49.708;18.568;2023-02-18T14:19:52;2.65;;;1.55;;
31347;SDS011;21711;49.708;18.568;2023-02-18T14:22:47;2.67;;;2.03;;
31347;SDS011;21711;49.708;18.568;2023-02-18T14:25:31;2.08;;;1.40;;
31347;SDS011;21711;49.708;18.568;2023-02-18T14:31:18;2.17;;;1.45;;
31347;SDS011;21711;49.708;18.568;2023-02-18T14:39:55;2.20;;;1.23;;
31347;SDS011;21711;49.708;18.568;2023-02-18T14:42:37;3.40;;;1.20;;
31347;SDS011;21711;49.708;18.568;2023-02-18T14:48:34;3.05;;;1.20;;
31347;SDS011;21711;49.708;18.568;2023-02-18T14:51:31;2.47;;;1.38;;
31347;SDS011;21711;49.708;18.568;2023-02-18T14:54:04;1.50;;;1.20;;
31347;SDS011;21711;49.708;18.568;2023-02-18T14:56:44;1.88;;;1.42;;
31347;SDS011;21711;49.708;18.568;2023-02-18T14:59:27;4.57;;;2.55;;
31347;SDS011;21711;49.708;18.568;2023-02-18T15:01:59;8.10;;;3.65;;
31347;SDS011;21711;49.708;18.568;2023-02-18T15:04:27;14.90;;;5.72;;
31347;SDS011;21711;49.708;18.568;2023-02-18T15:06:59;23.25;;;9.38;;
31347;SDS011;21711;49.708;18.568;2023-02-18T15:09:29;16.67;;;5.63;;
31347;SDS011;21711;49.708;18.568;2023-02-18T15:12:01;7.40;;;3.05;;
31347;SDS011;21711;49.708;18.568;2023-02-18T15:14:32;9.07;;;2.60;;
31347;SDS011;21711;49.708;18.568;2023-02-18T15:17:16;36.38;;;10.93;;
31347;SDS011;21711;49.708;18.568;2023-02-18T15:19:51;20.38;;;5.80;;
31347;SDS011;21711;49.708;18.568;2023-02-18T15:22:26;33.10;;;10.20;;
31347;SDS011;21711;49.708;18.568;2023-02-18T15:24:59;18.70;;;6.75;;
31347;SDS011;21711;49.708;18.568;2023-02-18T15:27:28;15.60;;;5.82;;
31347;SDS011;21711;49.708;18.568;2023-02-18T15:32:53;23.90;;;8.93;;
31347;SDS011;21711;49.708;18.568;2023-02-18T15:35:27;10.18;;;4.10;;
31347;SDS011;21711;49.708;18.568;2023-02-18T15:37:59;28.42;;;9.88;;
31347;SDS011;21711;49.708;18.568;2023-02-18T15:40:31;11.55;;;3.83;;
31347;SDS011;21711;49.708;18.568;2023-02-18T15:43:03;8.32;;;3.42;;
31347;SDS011;21711;49.708;18.568;2023-02-18T15:48:12;13.75;;;4.32;;
31347;SDS011;21711;49.708;18.568;2023-02-18T15:51:16;18.63;;;6.97;;
31347;SDS011;21711;49.708;18.568;2023-02-18T15:53:49;8.55;;;3.55;;
31347;SDS011;21711;49.708;18.568;2023-02-18T15:56:34;6.10;;;2.85;;
31347;SDS011;21711;49.708;18.568;2023-02-18T16:02:21;12.05;;;4.95;;
31347;SDS011;21711;49.708;18.568;2023-02-18T16:04:57;3.83;;;2.15;;
31347;SDS011;21711;49.708;18.568;2023-02-18T16:07:31;3.80;;;2.30;;
31347;SDS011;21711;49.708;18.568;2023-02-18T16:10:37;6.13;;;3.20;;
31347;SDS011;21711;49.708;18.568;2023-02-18T16:13:12;5.55;;;2.88;;
31347;SDS011;21711;49.708;18.568;2023-02-18T16:15:43;13.18;;;5.13;;
31347;SDS011;21711;49.708;18.568;2023-02-18T16:18:24;12.50;;;5.00;;
31347;SDS011;21711;49.708;18.568;2023-02-18T16:21:00;9.63;;;4.53;;
31347;SDS011;21711;49.708;18.568;2023-02-18T16:23:34;4.65;;;2.25;;
31347;SDS011;21711;49.708;18.568;2023-02-18T16:26:20;8.00;;;3.63;;
31347;SDS011;21711;49.708;18.568;2023-02-18T16:29:11;7.27;;;3.00;;
31347;SDS011;21711;49.708;18.568;2023-02-18T16:31:49;5.32;;;2.55;;
31347;SDS011;21711;49.708;18.568;2023-02-18T16:34:17;3.70;;;2.15;;
31347;SDS011;21711;49.708;18.568;2023-02-18T16:36:44;8.15;;;3.70;;
31347;SDS011;21711;49.708;18.568;2023-02-18T16:39:35;3.85;;;1.98;;
31347;SDS011;21711;49.708;18.568;2023-02-18T16:42:04;9.13;;;4.05;;
31347;SDS011;21711;49.708;18.568;2023-02-18T16:44:36;5.68;;;2.70;;
31347;SDS011;21711;49.708;18.568;2023-02-18T16:47:04;5.75;;;2.30;;
31347;SDS011;21711;49.708;18.568;2023-02-18T16:49:33;5.28;;;3.05;;
31347;SDS011;21711;49.708;18.568;2023-02-18T16:52:04;8.60;;;3.80;;
31347;SDS011;21711;49.708;18.568;2023-02-18T16:54:33;8.40;;;4.03;;
31347;SDS011;21711;49.708;18.568;2023-02-18T16:57:01;4.93;;;2.40;;
31347;SDS011;21711;49.708;18.568;2023-02-18T16:59:28;8.30;;;3.88;;
31347;SDS011;21711;49.708;18.568;2023-02-18T17:01:56;6.53;;;3.28;;
31347;SDS011;21711;49.708;18.568;2023-02-18T17:04:23;7.20;;;3.55;;
31347;SDS011;21711;49.708;18.568;2023-02-18T17:06:50;5.85;;;3.08;;
31347;SDS011;21711;49.708;18.568;2023-02-18T17:09:18;6.95;;;3.67;;
31347;SDS011;21711;49.708;18.568;2023-02-18T17:11:53;4.70;;;2.60;;
31347;SDS011;21711;49.708;18.568;2023-02-18T17:14:21;6.25;;;3.50;;
31347;SDS011;21711;49.708;18.568;2023-02-18T17:16:50;4.72;;;2.60;;
31347;SDS011;21711;49.708;18.568;2023-02-18T17:19:20;7.25;;;3.30;;
31347;SDS011;21711;49.708;18.568;2023-02-18T17:21:48;3.92;;;2.33;;
31347;SDS011;21711;49.708;18.568;2023-02-18T17:24:17;3.20;;;2.13;;
31347;SDS011;21711;49.708;18.568;2023-02-18T17:26:44;5.90;;;2.63;;
31347;SDS011;21711;49.708;18.568;2023-02-18T17:29:11;5.00;;;2.55;;
31347;SDS011;21711;49.708;18.568;2023-02-18T17:31:40;4.65;;;2.13;;
31347;SDS011;21711;49.708;18.568;2023-02-18T17:34:30;3.35;;;2.00;;
31347;SDS011;21711;49.708;18.568;2023-02-18T17:36:58;4.35;;;2.20;;
31347;SDS011;21711;49.708;18.568;2023-02-18T17:39:27;6.65;;;2.33;;
31347;SDS011;21711;49.708;18.568;2023-02-18T17:41:55;7.18;;;2.33;;
31347;SDS011;21711;49.708;18.568;2023-02-18T17:44:22;3.22;;;2.17;;
31347;SDS011;21711;49.708;18.568;2023-02-18T17:46:51;2.97;;;1.98;;
31347;SDS011;21711;49.708;18.568;2023-02-18T17:49:20;3.13;;;1.83;;
31347;SDS011;21711;49.708;18.568;2023-02-18T17:51:47;2.85;;;1.88;;
31347;SDS011;21711;49.708;18.568;2023-02-18T17:54:16;4.07;;;2.50;;
31347;SDS011;21711;49.708;18.568;2023-02-18T17:56:45;3.25;;;2.00;;
31347;SDS011;21711;49.708;18.568;2023-02-18T17:59:13;4.30;;;2.70;;
31347;SDS011;21711;49.708;18.568;2023-02-18T18:01:40;3.45;;;2.35;;
31347;SDS011;21711;49.708;18.568;2023-02-18T18:04:13;4.03;;;2.33;;
31347;SDS011;21711;49.708;18.568;2023-02-18T18:06:43;5.65;;;2.72;;